Time;durP1;ratioP1;P1;durP2;ratioP2;P2;SDS_P1;SDS_P2;PMS_P1;PMS_P2;Temp;Humidity;BMP_temperature;BMP_pressure;BME280_temperature;BME280_humidity;BME280_pressure;Samples;Min_cycle;Max_cycle;Signal;HPM_P1;HPM_P2
2021/08/31 00:00:27;;;;;;;1.60;1.10;;;15.00;98.20;;;;;;4991932;28;20457;-78
2021/08/31 00:02:54;;;;;;;1.60;1.00;;;14.90;98.20;;;;;;4984062;28;20489;-77
2021/08/31 00:05:20;;;;;;;1.60;1.00;;;14.90;98.20;;;;;;4991135;28;20480;-78
2021/08/31 00:07:47;;;;;;;1.60;1.00;;;14.90;98.20;;;;;;4981526;28;20565;-77
2021/08/31 00:10:15;;;;;;;1.60;1.00;;;14.90;98.20;;;;;;4991737;28;20456;-77
2021/08/31 00:12:42;;;;;;;1.60;1.10;;;14.90;98.20;;;;;;4981804;28;20957;-78
2021/08/31 00:15:11;;;;;;;1.60;1.00;;;14.90;98.20;;;;;;4988825;28;20847;-78
2021/08/31 00:17:38;;;;;;;1.60;1.10;;;14.90;98.20;;;;;;4979653;28;20493;-78
2021/08/31 00:20:07;;;;;;;1.60;1.00;;;14.90;98.20;;;;;;4993356;28;20468;-78
2021/08/31 00:22:36;;;;;;;1.60;1.00;;;14.90;98.20;;;;;;4983276;28;20484;-78
2021/08/31 00:25:03;;;;;;;1.60;1.00;;;14.80;98.20;;;;;;4989848;28;20457;-79
2021/08/31 00:27:31;;;;;;;1.60;1.10;;;14.80;98.20;;;;;;4983275;28;20872;-78
2021/08/31 00:29:58;;;;;;;1.60;1.03;;;14.80;98.20;;;;;;4991550;28;20457;-78
2021/08/31 00:32:25;;;;;;;1.60;1.00;;;14.80;98.20;;;;;;4982122;28;20493;-77
2021/08/31 00:34:53;;;;;;;1.60;1.00;;;14.80;98.20;;;;;;4992556;28;20996;-78
2021/08/31 00:37:19;;;;;;;1.60;1.00;;;14.80;98.20;;;;;;4982282;28;20571;-78
2021/08/31 00:39:46;;;;;;;1.60;1.00;;;14.70;98.20;;;;;;4991628;28;20453;-78
2021/08/31 00:42:13;;;;;;;1.60;1.00;;;14.70;98.20;;;;;;4982918;28;20485;-77
2021/08/31 00:44:41;;;;;;;1.60;1.00;;;14.70;98.20;;;;;;4994283;28;20479;-77
2021/08/31 00:47:08;;;;;;;1.60;1.00;;;14.70;98.20;;;;;;4989818;28;20476;-78
2021/08/31 00:49:36;;;;;;;1.60;1.07;;;14.70;98.20;;;;;;4990135;28;20544;-79
2021/08/31 00:52:04;;;;;;;1.60;1.10;;;14.70;98.20;;;;;;4980645;28;20583;-80
2021/08/31 00:54:31;;;;;;;1.60;1.00;;;14.70;98.20;;;;;;4992032;28;20535;-78
2021/08/31 00:57:01;;;;;;;1.60;1.10;;;14.70;98.20;;;;;;4979090;28;20484;-79
2021/08/31 00:59:27;;;;;;;1.60;1.00;;;14.70;98.20;;;;;;4989715;28;20468;-79
2021/08/31 01:01:57;;;;;;;1.60;1.10;;;14.70;98.20;;;;;;4980980;28;20485;-79
2021/08/31 01:04:26;;;;;;;1.60;1.00;;;14.60;98.20;;;;;;4988782;28;20589;-79
2021/08/31 01:06:53;;;;;;;1.57;1.00;;;14.60;98.20;;;;;;4963415;28;21324;-78
2021/08/31 01:09:20;;;;;;;1.60;1.00;;;14.60;98.20;;;;;;4996665;28;20967;-80
2021/08/31 01:11:47;;;;;;;1.60;1.00;;;14.50;98.20;;;;;;4981198;28;20491;-79
2021/08/31 01:14:15;;;;;;;1.60;0.90;;;14.50;98.20;;;;;;4994307;28;20488;-79
2021/08/31 01:16:41;;;;;;;1.60;1.00;;;14.50;98.20;;;;;;4981887;28;20500;-79
2021/08/31 01:19:11;;;;;;;1.60;1.00;;;14.50;98.20;;;;;;4990051;28;20469;-77
2021/08/31 01:21:38;;;;;;;1.60;1.00;;;14.50;98.20;;;;;;4981676;28;20567;-79
2021/08/31 01:24:05;;;;;;;1.60;1.00;;;14.50;98.20;;;;;;4994346;28;20480;-77
2021/08/31 01:26:33;;;;;;;1.60;1.00;;;14.50;98.20;;;;;;4983213;28;21116;-78
2021/08/31 01:29:01;;;;;;;1.60;1.00;;;14.50;98.20;;;;;;4992111;28;20461;-78
2021/08/31 01:31:28;;;;;;;1.60;1.00;;;14.50;98.20;;;;;;4981187;28;20488;-77
2021/08/31 01:33:55;;;;;;;1.60;1.00;;;14.50;98.20;;;;;;5002336;28;20671;-78
2021/08/31 01:36:24;;;;;;;1.60;1.03;;;14.40;98.20;;;;;;4979334;28;20495;-78
2021/08/31 01:38:52;;;;;;;1.60;1.00;;;14.40;98.20;;;;;;4989683;28;20462;-77
2021/08/31 01:41:19;;;;;;;1.60;1.10;;;14.40;98.20;;;;;;4981091;28;20480;-78
2021/08/31 01:43:47;;;;;;;1.60;1.00;;;14.40;98.20;;;;;;4989721;28;20501;-79
2021/08/31 01:46:14;;;;;;;1.60;1.10;;;14.40;98.20;;;;;;4980167;28;20488;-79
2021/08/31 01:48:41;;;;;;;1.60;1.10;;;14.40;98.20;;;;;;4990603;28;20860;-80
2021/08/31 01:51:08;;;;;;;1.60;1.00;;;14.40;98.20;;;;;;4989197;28;20496;-78
2021/08/31 01:53:36;;;;;;;1.60;1.00;;;14.40;98.20;;;;;;4996366;28;20503;-79
2021/08/31 01:56:04;;;;;;;1.60;1.00;;;14.40;98.20;;;;;;4984549;28;20493;-78
2021/08/31 01:58:31;;;;;;;1.60;1.10;;;14.30;98.20;;;;;;4990815;28;20661;-79
2021/08/31 02:00:59;;;;;;;1.60;1.00;;;14.30;98.20;;;;;;4987817;28;20496;-79
2021/08/31 02:03:26;;;;;;;1.60;1.10;;;14.30;98.20;;;;;;4990635;28;20477;-79
2021/08/31 02:05:53;;;;;;;1.60;1.10;;;14.30;98.20;;;;;;4980310;28;20471;-79
2021/08/31 02:08:19;;;;;;;1.60;1.00;;;14.30;98.20;;;;;;4987878;28;20583;-80
2021/08/31 02:10:46;;;;;;;1.60;1.00;;;14.30;98.20;;;;;;4986339;28;20469;-79
2021/08/31 02:13:14;;;;;;;1.60;1.10;;;14.30;98.20;;;;;;4989770;28;20501;-79
2021/08/31 02:15:40;;;;;;;1.60;1.00;;;14.30;98.20;;;;;;4990147;28;20996;-78
2021/08/31 02:18:09;;;;;;;1.60;1.07;;;14.30;98.20;;;;;;4976765;28;20478;-79
2021/08/31 02:20:36;;;;;;;1.60;1.10;;;14.30;98.20;;;;;;4994775;28;20460;-78
2021/08/31 02:23:03;;;;;;;1.60;1.00;;;14.30;98.20;;;;;;4981177;28;20487;-77
2021/08/31 02:25:30;;;;;;;1.60;1.10;;;14.30;98.20;;;;;;4989062;28;20475;-78
2021/08/31 02:28:00;;;;;;;1.60;1.00;;;14.30;98.20;;;;;;4979179;28;20489;-79
2021/08/31 02:30:27;;;;;;;1.60;1.10;;;14.30;98.20;;;;;;4993668;28;21016;-78
2021/08/31 02:32:59;;;;;;;1.60;1.10;;;14.30;98.20;;;;;;4980514;28;20547;-79
2021/08/31 02:35:28;;;;;;;1.60;1.20;;;14.30;98.20;;;;;;4989222;28;20485;-79
2021/08/31 02:37:55;;;;;;;1.60;1.00;;;14.30;98.20;;;;;;4981487;28;20575;-78
2021/08/31 02:40:22;;;;;;;1.60;1.10;;;14.20;98.20;;;;;;4991361;28;20508;-80
2021/08/31 02:42:48;;;;;;;1.60;1.00;;;14.20;98.20;;;;;;4983401;28;20580;-80
2021/08/31 02:45:15;;;;;;;1.60;1.10;;;14.20;98.20;;;;;;4997456;28;20551;-79
2021/08/31 02:47:42;;;;;;;1.60;1.00;;;14.20;98.20;;;;;;4984652;28;20563;-79
2021/08/31 02:50:09;;;;;;;1.60;1.10;;;14.20;98.20;;;;;;4993714;28;20468;-80
2021/08/31 02:52:38;;;;;;;1.60;1.13;;;14.20;98.20;;;;;;4984926;28;20493;-79
2021/08/31 02:55:05;;;;;;;1.60;1.00;;;14.20;98.20;;;;;;4994313;28;20516;-80
2021/08/31 02:57:32;;;;;;;1.60;1.10;;;14.20;98.20;;;;;;4982741;28;20567;-80
2021/08/31 03:00:00;;;;;;;1.60;1.00;;;14.20;98.20;;;;;;5001259;28;20544;-79
2021/08/31 03:02:27;;;;;;;1.60;1.00;;;14.20;98.20;;;;;;4993253;28;20491;-80
2021/08/31 03:04:54;;;;;;;1.60;1.07;;;14.20;98.20;;;;;;4996038;28;20464;-80
2021/08/31 03:07:20;;;;;;;1.60;1.00;;;14.20;98.20;;;;;;4982164;28;20850;-80
2021/08/31 03:09:49;;;;;;;1.60;1.10;;;14.10;98.20;;;;;;4993315;28;20472;-80
2021/08/31 03:12:15;;;;;;;1.60;1.00;;;14.10;98.20;;;;;;4983603;28;20476;-80
2021/08/31 03:14:42;;;;;;;1.60;1.00;;;14.10;98.20;;;;;;4995029;28;20485;-79
2021/08/31 03:17:10;;;;;;;1.60;1.10;;;14.10;98.20;;;;;;4983881;28;21610;-80
2021/08/31 03:19:37;;;;;;;1.60;1.00;;;14.10;98.20;;;;;;4991660;28;20537;-80
2021/08/31 03:22:05;;;;;;;1.60;1.00;;;14.10;98.20;;;;;;4985102;28;20591;-79
2021/08/31 03:24:33;;;;;;;1.60;1.00;;;14.10;98.20;;;;;;4996091;28;20463;-79
2021/08/31 03:27:01;;;;;;;1.60;1.10;;;14.10;98.20;;;;;;4985999;28;20484;-80
2021/08/31 03:29:27;;;;;;;1.60;1.10;;;14.00;98.20;;;;;;4999720;28;20453;-78
2021/08/31 03:31:54;;;;;;;1.60;1.00;;;14.00;98.20;;;;;;4985694;28;20491;-80
2021/08/31 03:34:21;;;;;;;1.60;1.00;;;14.00;98.20;;;;;;4998647;28;20477;-80
2021/08/31 03:36:49;;;;;;;1.60;1.10;;;14.00;98.20;;;;;;4989217;28;20540;-79
2021/08/31 03:39:16;;;;;;;1.60;1.10;;;14.00;98.20;;;;;;4998310;28;20491;-78
2021/08/31 03:41:43;;;;;;;1.63;1.20;;;14.00;98.20;;;;;;4987017;28;20484;-79
2021/08/31 03:44:11;;;;;;;1.60;1.10;;;14.00;98.20;;;;;;4996932;28;20511;-80
2021/08/31 03:46:38;;;;;;;1.60;1.00;;;14.00;98.20;;;;;;4974226;28;20485;-78
2021/08/31 03:49:05;;;;;;;1.60;1.10;;;14.00;98.20;;;;;;4998533;28;20485;-80
2021/08/31 03:51:32;;;;;;;1.60;1.00;;;14.00;98.20;;;;;;4986385;28;20791;-80
2021/08/31 03:53:59;;;;;;;1.60;1.10;;;14.00;98.20;;;;;;4999654;28;20519;-78
2021/08/31 03:56:25;;;;;;;1.60;1.00;;;14.00;98.20;;;;;;4988395;28;20564;-78
2021/08/31 03:58:52;;;;;;;1.60;1.10;;;14.00;98.20;;;;;;4997007;28;20524;-78
2021/08/31 04:01:21;;;;;;;1.60;1.23;;;14.00;98.20;;;;;;4988692;28;20550;-80
2021/08/31 04:03:47;;;;;;;1.60;1.00;;;14.10;98.20;;;;;;4991084;28;21009;-80
2021/08/31 04:06:14;;;;;;;1.60;1.10;;;14.10;98.20;;;;;;4986673;28;20483;-79
2021/08/31 04:08:41;;;;;;;1.60;1.03;;;14.10;98.20;;;;;;4993396;28;20840;-78
2021/08/31 04:11:08;;;;;;;1.60;1.10;;;14.10;98.20;;;;;;4987928;28;21020;-79
2021/08/31 04:13:35;;;;;;;1.60;1.00;;;14.10;98.20;;;;;;4997039;28;20694;-78
2021/08/31 04:16:01;;;;;;;1.60;1.10;;;14.10;98.20;;;;;;4990357;28;20556;-80
2021/08/31 04:18:30;;;;;;;1.60;1.10;;;14.10;98.20;;;;;;4999979;28;20965;-80
2021/08/31 04:20:57;;;;;;;1.60;1.10;;;14.10;98.20;;;;;;4988108;28;20996;-79
2021/08/31 04:23:26;;;;;;;1.60;1.10;;;14.10;98.20;;;;;;4997328;28;20485;-78
2021/08/31 04:25:53;;;;;;;1.60;1.03;;;14.20;98.20;;;;;;4995267;28;20509;-79
2021/08/31 04:28:19;;;;;;;1.60;1.03;;;14.20;98.20;;;;;;5000261;28;20551;-79
2021/08/31 04:30:46;;;;;;;1.60;1.00;;;14.20;98.20;;;;;;5002735;28;20449;-79
2021/08/31 04:33:14;;;;;;;1.60;1.00;;;14.30;98.20;;;;;;5009661;28;20484;-78
2021/08/31 04:35:42;;;;;;;1.83;1.63;;;14.30;98.20;;;;;;5004914;28;20477;-77
2021/08/31 04:38:09;;;;;;;1.60;1.10;;;14.30;98.20;;;;;;4994866;28;20478;-79
2021/08/31 04:40:36;;;;;;;1.70;1.50;;;14.40;98.20;;;;;;5006936;28;20457;-77
2021/08/31 04:43:03;;;;;;;1.60;1.20;;;14.40;98.20;;;;;;4992927;28;20492;-78
2021/08/31 04:45:31;;;;;;;1.60;1.00;;;14.40;98.20;;;;;;5004134;28;20465;-79
2021/08/31 04:47:58;;;;;;;1.60;1.10;;;14.50;98.20;;;;;;4996370;28;20496;-79
2021/08/31 04:50:25;;;;;;;1.60;1.00;;;14.50;98.20;;;;;;5015007;28;20975;-79
2021/08/31 04:52:55;;;;;;;1.60;1.00;;;14.60;98.20;;;;;;4996483;28;20516;-79
2021/08/31 04:55:23;;;;;;;1.60;1.03;;;14.60;98.20;;;;;;5000881;28;20497;-78
2021/08/31 04:57:50;;;;;;;1.60;1.10;;;14.60;98.20;;;;;;4986638;28;20497;-79
2021/08/31 05:00:18;;;;;;;1.60;1.10;;;14.70;98.20;;;;;;5005657;28;20967;-77
2021/08/31 05:02:45;;;;;;;1.60;1.00;;;14.70;98.20;;;;;;4995400;28;20499;-78
2021/08/31 05:05:12;;;;;;;1.60;1.10;;;14.70;98.20;;;;;;5002007;28;20489;-79
2021/08/31 05:07:39;;;;;;;1.60;1.00;;;14.80;98.20;;;;;;4994973;28;20475;-80
2021/08/31 05:10:09;;;;;;;1.60;1.10;;;14.80;98.20;;;;;;5004229;28;20560;-78
2021/08/31 05:12:37;;;;;;;1.60;1.10;;;14.80;98.20;;;;;;4991999;28;20472;-78
2021/08/31 05:15:04;;;;;;;1.60;1.00;;;14.80;98.20;;;;;;4998374;28;21064;-78
2021/08/31 05:17:31;;;;;;;1.60;1.00;;;14.80;98.20;;;;;;4988482;28;20485;-78
2021/08/31 05:19:59;;;;;;;1.60;1.00;;;14.80;98.20;;;;;;5002579;28;20475;-79
2021/08/31 05:22:27;;;;;;;1.60;1.10;;;14.80;98.20;;;;;;4991221;28;20492;-78
2021/08/31 05:24:55;;;;;;;1.60;1.03;;;14.80;98.20;;;;;;5002403;28;20496;-79
2021/08/31 05:27:24;;;;;;;1.60;1.00;;;14.90;98.20;;;;;;4992746;28;20539;-79
2021/08/31 05:29:51;;;;;;;1.60;1.10;;;14.90;98.20;;;;;;4986629;28;20462;-78
2021/08/31 05:32:18;;;;;;;1.60;1.00;;;14.90;98.20;;;;;;4996876;28;20543;-80
2021/08/31 05:34:45;;;;;;;1.70;1.10;;;14.90;98.20;;;;;;5007487;28;20488;-79
2021/08/31 05:37:15;;;;;;;1.60;1.00;;;15.00;98.20;;;;;;4994457;28;20485;-79
2021/08/31 05:39:42;;;;;;;1.60;1.00;;;15.00;98.20;;;;;;5007178;28;20543;-79
2021/08/31 05:42:11;;;;;;;1.60;1.00;;;15.10;98.20;;;;;;5001730;28;21383;-79
2021/08/31 05:44:40;;;;;;;1.60;1.00;;;15.10;98.20;;;;;;5009641;28;20559;-79
2021/08/31 05:47:08;;;;;;;1.60;1.10;;;15.10;98.20;;;;;;5001792;28;20473;-79
2021/08/31 05:49:36;;;;;;;1.60;1.10;;;15.20;98.20;;;;;;5009714;28;20521;-79
2021/08/31 05:52:03;;;;;;;1.60;1.10;;;15.20;98.20;;;;;;5003231;28;20491;-79
2021/08/31 05:54:30;;;;;;;1.60;1.00;;;15.30;98.20;;;;;;5007969;28;20535;-79
2021/08/31 05:56:59;;;;;;;3.73;3.43;;;15.30;98.20;;;;;;5005299;28;20575;-79
2021/08/31 05:59:26;;;;;;;1.60;1.00;;;15.40;98.20;;;;;;5008547;28;20513;-80
2021/08/31 06:01:54;;;;;;;1.60;1.00;;;15.40;98.20;;;;;;5007768;28;20484;-79
2021/08/31 06:04:25;;;;;;;1.60;1.07;;;15.50;98.20;;;;;;5005944;28;20472;-79
2021/08/31 06:06:52;;;;;;;1.60;1.00;;;15.50;98.20;;;;;;4994286;28;20531;-79
2021/08/31 06:09:19;;;;;;;1.60;1.00;;;15.50;98.20;;;;;;5014167;28;20629;-78
2021/08/31 06:11:46;;;;;;;1.60;1.00;;;15.50;98.20;;;;;;5010648;28;20481;-79
2021/08/31 06:14:13;;;;;;;1.60;1.00;;;15.50;98.20;;;;;;5005881;28;20583;-79
2021/08/31 06:16:40;;;;;;;1.60;1.00;;;15.60;98.20;;;;;;4998506;28;20515;-80
2021/08/31 06:19:08;;;;;;;1.60;1.00;;;15.60;98.20;;;;;;5005644;28;20488;-79
2021/08/31 06:21:35;;;;;;;1.60;1.00;;;15.60;98.20;;;;;;4996555;28;20599;-79
2021/08/31 06:24:02;;;;;;;2.23;2.03;;;15.60;98.20;;;;;;5000086;28;20572;-79
2021/08/31 06:26:29;;;;;;;1.60;1.00;;;15.60;98.20;;;;;;4993096;28;20477;-79
2021/08/31 06:29:52;;;;;;;1.60;1.00;;;15.60;98.20;;;;;;5009904;28;20494;-79
2021/08/31 06:32:19;;;;;;;1.60;1.10;;;15.60;98.20;;;;;;4998462;28;20491;-79
2021/08/31 06:34:47;;;;;;;2.10;1.73;;;15.60;98.20;;;;;;4987411;28;20470;-80
2021/08/31 06:37:14;;;;;;;1.67;1.10;;;15.70;98.20;;;;;;4991478;28;20869;-79
2021/08/31 06:39:53;;;;;;;;;;;;;;;;;;;;;
2021/08/31 06:42:20;;;;;;;1.67;1.10;;;15.80;98.20;;;;;;4991252;28;20472;-79
2021/08/31 06:44:47;;;;;;;1.67;1.10;;;15.80;98.20;;;;;;5003317;28;20672;-79
2021/08/31 06:47:14;;;;;;;7.90;2.20;;;15.80;98.20;;;;;;4991438;28;20504;-80
2021/08/31 06:49:41;;;;;;;1.60;1.00;;;15.80;98.20;;;;;;4999915;28;20465;-79
2021/08/31 06:52:09;;;;;;;1.60;1.00;;;15.90;98.20;;;;;;4998365;28;20772;-79
2021/08/31 06:54:37;;;;;;;1.63;1.00;;;15.90;98.20;;;;;;4998007;28;20461;-79
2021/08/31 06:57:05;;;;;;;1.60;1.00;;;15.90;98.20;;;;;;4986607;28;20576;-79
2021/08/31 06:59:33;;;;;;;1.60;1.00;;;15.90;98.20;;;;;;4999007;28;20493;-79
2021/08/31 07:02:00;;;;;;;1.63;1.00;;;15.90;98.20;;;;;;4985142;28;20492;-79
2021/08/31 07:04:27;;;;;;;1.60;1.00;;;15.90;98.20;;;;;;4988860;28;20485;-78
2021/08/31 07:06:54;;;;;;;1.60;1.00;;;15.90;98.20;;;;;;4976951;28;20493;-79
2021/08/31 07:09:22;;;;;;;1.60;1.03;;;15.90;98.20;;;;;;4989335;28;20541;-79
2021/08/31 07:11:49;;;;;;;1.60;1.00;;;15.90;98.20;;;;;;4985431;28;20489;-78
2021/08/31 07:14:16;;;;;;;1.73;1.40;;;15.90;98.20;;;;;;4992423;28;20567;-79
2021/08/31 07:16:43;;;;;;;1.70;1.20;;;16.00;98.20;;;;;;4984197;28;20495;-79
2021/08/31 07:19:11;;;;;;;1.70;1.30;;;16.00;98.20;;;;;;4988337;28;20461;-80
2021/08/31 07:21:38;;;;;;;1.60;1.00;;;16.00;98.20;;;;;;4979697;28;20492;-79
2021/08/31 07:24:22;;;;;;;1.80;1.47;;;16.10;98.20;;;;;;4989918;28;20496;-77
2021/08/31 07:26:52;;;;;;;1.60;1.00;;;16.10;98.20;;;;;;4984529;28;20485;-78
2021/08/31 07:32:00;;;;;;;1.60;1.10;;;16.10;98.20;;;;;;4967705;28;20589;-80
2021/08/31 07:34:32;;;;;;;1.70;1.40;;;16.10;98.20;;;;;;4991958;28;20457;-79
2021/08/31 07:36:59;;;;;;;1.60;1.00;;;16.10;98.20;;;;;;4981137;28;20492;-80
2021/08/31 07:39:26;;;;;;;1.60;0.90;;;16.10;98.20;;;;;;4990116;28;20460;-79
2021/08/31 07:42:02;;;;;;;1.70;1.20;;;16.10;98.20;;;;;;4981658;28;20556;-80
2021/08/31 07:44:31;;;;;;;1.67;1.23;;;16.00;98.20;;;;;;4988791;28;20464;-80
2021/08/31 07:46:58;;;;;;;1.60;0.97;;;16.10;98.20;;;;;;4981021;28;21331;-81
2021/08/31 07:49:25;;;;;;;1.60;1.00;;;16.10;98.20;;;;;;4989228;28;20465;-80
2021/08/31 07:51:54;;;;;;;1.60;1.00;;;16.10;98.20;;;;;;4984496;28;20508;-81
2021/08/31 07:54:22;;;;;;;2.90;2.70;;;16.10;98.20;;;;;;4991675;28;21229;-80
2021/08/31 07:56:49;;;;;;;1.60;1.00;;;16.20;98.20;;;;;;4981641;28;20484;-80
2021/08/31 07:59:17;;;;;;;1.80;1.47;;;16.20;98.20;;;;;;4991836;28;20475;-78
2021/08/31 08:01:44;;;;;;;1.60;1.00;;;16.20;98.20;;;;;;4981631;28;21171;-78
2021/08/31 08:04:11;;;;;;;1.60;1.00;;;16.20;98.20;;;;;;4990155;28;21181;-79
2021/08/31 08:06:40;;;;;;;1.60;1.00;;;16.20;98.20;;;;;;4977973;28;20517;-78
2021/08/31 08:09:08;;;;;;;1.60;1.00;;;16.20;98.20;;;;;;4990294;28;20521;-79
2021/08/31 08:11:40;;;;;;;1.60;1.00;;;16.20;98.20;;;;;;4979805;28;20497;-79
2021/08/31 08:14:07;;;;;;;1.60;1.00;;;16.20;98.20;;;;;;4990668;28;20500;-80
2021/08/31 08:16:38;;;;;;;1.60;1.00;;;16.20;98.20;;;;;;4992483;28;20472;-79
2021/08/31 08:19:07;;;;;;;1.60;0.90;;;16.20;98.20;;;;;;4990632;28;20544;-79
2021/08/31 08:21:35;;;;;;;1.70;1.30;;;16.20;98.20;;;;;;4978285;28;20480;-79
2021/08/31 08:24:02;;;;;;;2.57;2.37;;;16.20;98.20;;;;;;4992423;28;20474;-79
2021/08/31 08:26:34;;;;;;;1.60;1.00;;;16.20;98.20;;;;;;4981258;28;20610;-79
2021/08/31 08:29:07;;;;;;;1.60;1.00;;;16.20;98.20;;;;;;4988232;28;20872;-79
2021/08/31 08:31:45;;;;;;;1.60;0.97;;;16.20;98.20;;;;;;4980070;28;20485;-79
2021/08/31 08:37:15;;;;;;;1.60;1.00;;;16.30;98.20;;;;;;4976511;28;20658;-77
2021/08/31 08:39:42;;;;;;;1.60;1.00;;;16.40;98.20;;;;;;4991035;28;20592;-80
2021/08/31 08:42:20;;;;;;;1.60;1.07;;;16.40;98.20;;;;;;4976213;28;20481;-79
2021/08/31 08:44:47;;;;;;;1.70;1.17;;;16.40;98.20;;;;;;4991233;28;20904;-78
2021/08/31 08:47:35;;;;;;;1.70;1.23;;;16.40;98.20;;;;;;4986536;28;20480;-79
2021/08/31 08:50:02;;;;;;;1.60;1.00;;;16.40;98.20;;;;;;4999628;28;20544;-79
2021/08/31 08:52:29;;;;;;;1.60;1.00;;;16.40;98.20;;;;;;4984928;28;20516;-80
2021/08/31 08:54:56;;;;;;;1.70;1.40;;;16.40;98.20;;;;;;4988726;28;20461;-79
2021/08/31 08:57:28;;;;;;;1.60;1.00;;;16.40;98.20;;;;;;4979243;28;20485;-80
2021/08/31 08:59:54;;;;;;;1.80;1.33;;;16.40;98.20;;;;;;4996043;28;20555;-79
2021/08/31 09:02:37;;;;;;;1.67;1.00;;;16.40;98.20;;;;;;4981422;28;20489;-80
2021/08/31 09:05:05;;;;;;;1.60;1.10;;;16.40;98.20;;;;;;4988388;28;20473;-79
2021/08/31 09:07:36;;;;;;;1.60;1.10;;;16.50;98.20;;;;;;4978693;28;20485;-79
2021/08/31 09:10:15;;;;;;;1.60;0.90;;;16.50;98.20;;;;;;4989771;28;20479;-79
2021/08/31 09:12:43;;;;;;;1.60;0.97;;;16.60;98.20;;;;;;4981028;28;20497;-80
2021/08/31 09:15:34;;;;;;;1.60;1.00;;;16.60;98.20;;;;;;5007476;28;20465;-79
2021/08/31 09:18:19;;;;;;;1.60;1.00;;;16.70;98.20;;;;;;4997904;28;20477;-78
2021/08/31 09:21:01;;;;;;;1.60;1.00;;;16.80;98.20;;;;;;4996836;28;20899;-79
2021/08/31 09:23:30;;;;;;;1.60;1.00;;;16.80;98.20;;;;;;4961734;28;20856;-79
2021/08/31 09:26:06;;;;;;;1.60;1.00;;;16.80;98.20;;;;;;4991965;28;20452;-79
2021/08/31 09:28:34;;;;;;;1.60;1.00;;;16.80;98.20;;;;;;4987897;28;20489;-78
2021/08/31 09:31:05;;;;;;;1.57;0.93;;;16.80;98.20;;;;;;4978961;28;20519;-79
2021/08/31 09:33:35;;;;;;;1.80;1.53;;;16.80;98.20;;;;;;4990274;28;20485;-79
2021/08/31 09:36:11;;;;;;;1.50;0.93;;;16.80;98.20;;;;;;4977478;28;20461;-79
2021/08/31 09:38:44;;;;;;;1.60;1.00;;;16.80;98.20;;;;;;4986507;28;20488;-78
2021/08/31 09:41:11;;;;;;;1.60;1.00;;;16.80;98.20;;;;;;4979221;28;20559;-79
2021/08/31 09:43:49;;;;;;;1.60;1.00;;;16.80;98.20;;;;;;4978419;28;20492;-78
2021/08/31 09:46:16;;;;;;;1.97;1.50;;;16.90;98.20;;;;;;4983443;28;20519;-79
2021/08/31 09:48:44;;;;;;;1.60;1.00;;;16.90;98.20;;;;;;4993037;28;21027;-79
2021/08/31 09:51:13;;;;;;;1.60;1.00;;;16.90;98.20;;;;;;4988057;28;20510;-78
2021/08/31 09:53:40;;;;;;;1.70;1.20;;;16.90;98.20;;;;;;4991948;28;20611;-78
2021/08/31 09:56:10;;;;;;;4.57;1.57;;;17.00;98.20;;;;;;4988571;28;20485;-80
2021/08/31 09:58:38;;;;;;;1.60;0.97;;;17.10;98.20;;;;;;4999424;28;20505;-80
2021/08/31 10:01:06;;;;;;;1.60;1.00;;;17.20;98.20;;;;;;4993155;28;20493;-80
2021/08/31 10:03:34;;;;;;;1.60;1.03;;;17.30;98.20;;;;;;5001671;28;20507;-81
2021/08/31 10:06:04;;;;;;;1.60;1.00;;;17.40;98.20;;;;;;4989333;28;20476;-80
2021/08/31 10:08:33;;;;;;;1.60;0.97;;;17.50;98.20;;;;;;5000019;28;20752;-80
2021/08/31 10:11:02;;;;;;;1.60;0.90;;;17.70;98.20;;;;;;4990180;28;20562;-80
2021/08/31 10:13:29;;;;;;;1.60;1.00;;;17.80;98.20;;;;;;4999089;28;20481;-80
2021/08/31 10:15:59;;;;;;;1.60;0.90;;;17.90;98.20;;;;;;4993276;28;20985;-81
2021/08/31 10:18:28;;;;;;;1.60;0.90;;;18.00;98.20;;;;;;4998535;28;20477;-80
2021/08/31 10:21:01;;;;;;;1.70;1.27;;;18.30;98.20;;;;;;4992228;28;20529;-81
2021/08/31 10:23:32;;;;;;;1.60;0.97;;;18.60;98.20;;;;;;5001120;28;20607;-80
2021/08/31 10:26:27;;;;;;;1.60;0.93;;;18.90;98.20;;;;;;4994023;28;20467;-80
2021/08/31 10:29:25;;;;;;;1.60;0.90;;;19.30;98.20;;;;;;4991118;28;20485;-80
2021/08/31 10:31:55;;;;;;;1.60;0.90;;;19.40;98.20;;;;;;4993247;28;20698;-81
2021/08/31 10:34:43;;;;;;;1.60;0.90;;;19.60;98.20;;;;;;5003828;28;20508;-80
2021/08/31 10:37:14;;;;;;;1.60;0.90;;;19.70;98.20;;;;;;4991605;28;20481;-81
2021/08/31 10:39:48;;;;;;;1.60;1.00;;;19.70;98.20;;;;;;4998439;28;20502;-81
2021/08/31 10:42:40;;;;;;;1.60;0.90;;;19.80;98.20;;;;;;4986964;28;20476;-80
2021/08/31 10:45:29;;;;;;;1.60;0.90;;;19.80;98.20;;;;;;5003283;28;20460;-80
2021/08/31 10:47:58;;;;;;;1.60;0.90;;;19.80;98.20;;;;;;4984621;28;20481;-81
2021/08/31 10:50:26;;;;;;;1.60;1.00;;;19.90;98.20;;;;;;4996376;28;20654;-77
2021/08/31 10:53:01;;;;;;;1.60;0.97;;;20.00;98.20;;;;;;4984552;28;20503;-78
2021/08/31 10:55:51;;;;;;;1.60;0.90;;;20.30;98.20;;;;;;5001380;28;20495;-80
2021/08/31 10:58:47;;;;;;;1.60;0.90;;;20.50;98.20;;;;;;4962062;28;20543;-79
2021/08/31 11:01:16;;;;;;;1.60;1.00;;;20.70;98.20;;;;;;4972941;28;20507;-78
2021/08/31 11:03:43;;;;;;;1.60;0.90;;;20.90;98.20;;;;;;4988115;28;20481;-79
2021/08/31 11:06:33;;;;;;;1.60;0.90;;;21.00;98.20;;;;;;4979131;28;20992;-78
2021/08/31 11:09:22;;;;;;;1.60;0.90;;;21.00;98.20;;;;;;4989915;28;21023;-78
2021/08/31 11:12:07;;;;;;;1.60;0.90;;;21.00;98.20;;;;;;4982344;28;20485;-78
2021/08/31 11:14:49;;;;;;;1.60;0.90;;;21.10;98.20;;;;;;4988106;28;20464;-79
2021/08/31 11:17:35;;;;;;;1.60;0.90;;;21.20;96.20;;;;;;4997293;28;20489;-78
2021/08/31 11:20:17;;;;;;;1.60;0.90;;;21.40;96.50;;;;;;4995768;28;20457;-78
2021/08/31 11:22:54;;;;;;;1.60;0.90;;;21.60;94.70;;;;;;4983908;28;20496;-79
2021/08/31 11:25:29;;;;;;;1.60;1.00;;;21.80;93.40;;;;;;4995149;28;21117;-78
2021/08/31 11:28:02;;;;;;;1.57;0.90;;;22.00;95.30;;;;;;4986036;28;20572;-79
2021/08/31 11:30:30;;;;;;;1.80;1.50;;;22.20;93.30;;;;;;4998190;28;20660;-78
2021/08/31 11:33:14;;;;;;;1.57;0.90;;;22.20;91.70;;;;;;4985464;28;20921;-78
2021/08/31 11:35:41;;;;;;;1.60;0.90;;;22.20;91.70;;;;;;4998059;28;20481;-79
2021/08/31 11:38:09;;;;;;;1.57;0.90;;;22.40;92.80;;;;;;4984418;28;20478;-78
2021/08/31 11:40:38;;;;;;;1.60;0.97;;;22.50;91.20;;;;;;4998234;28;20898;-81
2021/08/31 11:43:06;;;;;;;1.90;1.60;;;22.60;90.70;;;;;;4986013;28;20831;-81
2021/08/31 11:45:38;;;;;;;1.70;1.27;;;22.80;90.10;;;;;;5009827;28;20492;-81
2021/08/31 11:48:08;;;;;;;1.57;0.90;;;22.90;89.80;;;;;;4992652;28;20489;-81
2021/08/31 11:50:36;;;;;;;1.60;0.90;;;23.00;89.90;;;;;;5002193;28;20476;-78
2021/08/31 11:53:17;;;;;;;1.57;0.90;;;23.00;89.90;;;;;;4989266;28;20552;-79
2021/08/31 11:55:53;;;;;;;1.57;0.90;;;22.90;88.80;;;;;;4998383;28;20468;-79
2021/08/31 11:58:22;;;;;;;1.60;0.90;;;22.80;89.60;;;;;;4973298;28;20961;-79
2021/08/31 12:00:50;;;;;;;1.57;0.90;;;22.90;88.90;;;;;;4990861;28;20484;-82
2021/08/31 12:03:26;;;;;;;1.57;0.90;;;23.00;89.00;;;;;;5000041;28;20812;-79
2021/08/31 12:06:07;;;;;;;1.70;1.10;;;23.10;86.60;;;;;;4990636;28;20461;-78
2021/08/31 12:08:41;;;;;;;1.60;0.90;;;23.20;87.30;;;;;;4995910;28;20458;-77
2021/08/31 12:11:09;;;;;;;1.53;0.90;;;23.40;88.50;;;;;;4987605;28;20487;-77
2021/08/31 12:13:38;;;;;;;1.60;0.90;;;23.50;86.20;;;;;;4994143;28;20520;-77
2021/08/31 12:16:08;;;;;;;1.50;0.90;;;23.60;85.80;;;;;;4984668;28;20458;-78
2021/08/31 12:18:35;;;;;;;1.53;0.90;;;23.80;86.90;;;;;;5001075;28;20473;-78
2021/08/31 12:21:19;;;;;;;1.60;0.90;;;24.00;86.00;;;;;;4993975;28;20464;-78
2021/08/31 12:23:48;;;;;;;1.53;0.90;;;24.20;85.10;;;;;;5004258;28;20501;-79
2021/08/31 12:26:37;;;;;;;1.57;0.90;;;24.20;82.80;;;;;;4995031;28;20488;-78
2021/08/31 12:29:25;;;;;;;1.57;0.90;;;23.90;83.70;;;;;;4997861;28;20755;-78
2021/08/31 12:32:09;;;;;;;1.60;0.90;;;23.70;85.80;;;;;;4993424;28;20476;-79
2021/08/31 12:34:36;;;;;;;1.60;0.90;;;23.70;85.60;;;;;;4995222;28;20532;-79
2021/08/31 12:37:03;;;;;;;1.60;0.90;;;23.50;86.90;;;;;;4993279;28;20815;-79
2021/08/31 12:39:32;;;;;;;1.57;0.90;;;23.40;86.20;;;;;;5010595;28;20595;-79
2021/08/31 12:41:59;;;;;;;1.60;0.90;;;23.40;87.10;;;;;;4996280;28;20473;-79
2021/08/31 12:44:28;;;;;;;1.60;1.10;;;23.50;86.50;;;;;;5006967;28;20449;-80
2021/08/31 12:47:08;;;;;;;1.53;0.90;;;23.50;86.20;;;;;;4998597;28;20560;-79
2021/08/31 12:49:37;;;;;;;1.57;0.90;;;23.50;86.60;;;;;;4997458;28;20563;-78
2021/08/31 12:52:16;;;;;;;1.60;1.00;;;23.60;84.30;;;;;;4989599;28;20536;-78
2021/08/31 12:54:43;;;;;;;1.50;0.90;;;23.70;84.50;;;;;;5000240;28;20469;-78
2021/08/31 12:57:14;;;;;;;1.57;0.90;;;23.70;84.40;;;;;;4993419;28;20487;-79
2021/08/31 12:59:45;;;;;;;1.50;0.90;;;23.50;85.30;;;;;;5001793;28;20536;-78
2021/08/31 13:02:19;;;;;;;1.60;1.10;;;23.40;85.80;;;;;;4991446;28;20557;-78
2021/08/31 13:04:47;;;;;;;1.53;0.90;;;23.40;86.30;;;;;;5000992;28;20496;-78
2021/08/31 13:07:18;;;;;;;1.57;0.90;;;23.60;84.90;;;;;;4985506;28;20560;-78